Time;durP1;ratioP1;P1;durP2;ratioP2;P2;SDS_P1;SDS_P2;PMS_P1;PMS_P2;Temp;Humidity;BMP_temperature;BMP_pressure;BME280_temperature;BME280_humidity;BME280_pressure;Samples;Min_cycle;Max_cycle;Signal;HPM_P1;HPM_P2
2021/10/20 00:00:04;;;;;;;12.47;7.43;;;13.40;99.90;;;;;;4165604;28;20211;-81
2021/10/20 00:02:06;;;;;;;10.70;7.43;;;13.40;99.90;;;;;;4173084;28;20284;-81
2021/10/20 00:04:09;;;;;;;9.37;6.53;;;13.50;99.90;;;;;;4162729;28;20721;-81
2021/10/20 00:06:11;;;;;;;10.37;6.73;;;13.40;99.90;;;;;;4155395;28;20214;-80
2021/10/20 00:08:12;;;;;;;10.30;7.03;;;13.50;99.90;;;;;;4168951;28;20729;-81
2021/10/20 00:10:16;;;;;;;10.87;6.87;;;13.40;99.90;;;;;;4177213;28;20740;-81
2021/10/20 00:12:17;;;;;;;8.70;6.33;;;14.00;99.90;;;;;;4149014;28;20257;-80
2021/10/20 00:14:20;;;;;;;10.37;6.83;;;13.40;99.90;;;;;;4151681;28;20210;-80
2021/10/20 00:16:22;;;;;;;9.90;6.27;;;13.40;99.90;;;;;;4163364;28;20202;-80
2021/10/20 00:18:24;;;;;;;9.77;6.27;;;13.30;99.90;;;;;;4157257;28;20268;-81
2021/10/20 00:20:27;;;;;;;10.10;7.07;;;13.40;99.90;;;;;;4165755;28;20231;-81
2021/10/20 00:22:29;;;;;;;10.63;6.50;;;13.40;99.90;;;;;;4161568;28;20218;-80
2021/10/20 00:24:31;;;;;;;9.53;6.20;;;13.30;99.90;;;;;;4165659;28;20272;-81
2021/10/20 00:26:33;;;;;;;11.80;6.50;;;13.30;99.90;;;;;;4164879;28;20202;-81
2021/10/20 00:28:34;;;;;;;11.00;6.70;;;13.40;99.90;;;;;;4165601;28;20272;-80
2021/10/20 00:30:36;;;;;;;9.13;6.47;;;13.30;99.90;;;;;;4165509;28;20239;-80
2021/10/20 00:32:38;;;;;;;9.13;6.40;;;13.30;99.90;;;;;;4164819;28;20275;-80
2021/10/20 00:34:40;;;;;;;10.83;5.57;;;13.30;99.90;;;;;;4165848;28;20430;-80
2021/10/20 00:36:43;;;;;;;9.63;6.20;;;13.30;99.90;;;;;;4161934;28;20215;-80
2021/10/20 00:38:45;;;;;;;11.40;6.33;;;13.20;99.90;;;;;;4167483;28;20218;-81
2021/10/20 00:40:47;;;;;;;9.97;6.73;;;13.20;99.90;;;;;;4154227;28;20238;-81
2021/10/20 00:42:51;;;;;;;10.97;6.37;;;13.20;99.90;;;;;;4150568;28;20222;-81
2021/10/20 00:44:55;;;;;;;8.47;5.90;;;13.20;99.90;;;;;;4162019;28;20210;-80
2021/10/20 00:46:57;;;;;;;9.87;6.07;;;13.20;99.90;;;;;;4166772;28;20210;-82
2021/10/20 00:48:58;;;;;;;8.90;6.00;;;13.20;99.90;;;;;;4159234;28;20211;-82
2021/10/20 00:51:00;;;;;;;8.73;5.53;;;13.20;99.90;;;;;;4150495;28;20243;-80
2021/10/20 00:53:04;;;;;;;7.30;5.30;;;13.20;99.90;;;;;;4156500;28;20221;-81
2021/10/20 00:55:07;;;;;;;9.53;6.30;;;13.10;99.90;;;;;;4158055;28;20253;-81
2021/10/20 00:57:11;;;;;;;7.53;5.50;;;13.20;99.90;;;;;;4170710;28;20236;-81
2021/10/20 00:59:12;;;;;;;7.40;5.50;;;13.20;99.90;;;;;;4167631;28;20214;-81
2021/10/20 01:01:16;;;;;;;9.67;5.03;;;13.10;99.90;;;;;;4167432;28;20234;-81
2021/10/20 01:03:18;;;;;;;8.57;5.43;;;13.20;99.90;;;;;;4165548;28;20222;-82
2021/10/20 01:05:19;;;;;;;7.73;5.33;;;13.20;99.90;;;;;;4165131;28;20236;-81
2021/10/20 01:07:22;;;;;;;8.50;5.40;;;13.20;99.90;;;;;;4166304;28;20203;-80
2021/10/20 01:09:26;;;;;;;7.17;5.20;;;13.20;99.90;;;;;;4166327;28;20215;-81
2021/10/20 01:11:27;;;;;;;8.87;5.13;;;13.20;99.90;;;;;;4166533;28;20230;-82
2021/10/20 01:13:30;;;;;;;9.07;5.33;;;13.20;99.90;;;;;;4166967;28;20252;-82
2021/10/20 01:15:32;;;;;;;10.03;5.50;;;13.20;99.90;;;;;;4162147;28;20229;-81
2021/10/20 01:17:33;;;;;;;7.97;5.37;;;13.20;99.90;;;;;;4156513;28;20265;-82
2021/10/20 01:19:41;;;;;;;8.83;5.60;;;13.20;99.90;;;;;;4165762;28;20206;-82
2021/10/20 01:21:44;;;;;;;8.43;5.27;;;13.20;99.90;;;;;;4165966;28;20304;-81
2021/10/20 01:23:47;;;;;;;7.30;5.03;;;13.20;99.90;;;;;;4164414;28;20301;-81
2021/10/20 01:25:49;;;;;;;8.27;5.40;;;13.20;99.90;;;;;;4169869;28;20213;-81
2021/10/20 01:27:51;;;;;;;7.13;5.17;;;13.20;99.90;;;;;;4179384;28;20271;-82
2021/10/20 01:29:53;;;;;;;7.97;5.37;;;13.20;99.90;;;;;;4165802;28;20557;-81
2021/10/20 01:31:57;;;;;;;8.60;5.40;;;13.20;99.90;;;;;;4164764;28;20218;-82
2021/10/20 01:33:59;;;;;;;7.40;4.67;;;13.20;99.90;;;;;;4164235;28;20271;-80
2021/10/20 01:36:01;;;;;;;8.70;5.63;;;13.20;99.90;;;;;;4167088;28;20691;-80
2021/10/20 01:38:04;;;;;;;7.93;5.00;;;13.20;99.90;;;;;;4165354;28;20218;-80
2021/10/20 01:40:08;;;;;;;11.87;5.43;;;13.10;99.90;;;;;;4167909;28;20238;-81
2021/10/20 01:42:10;;;;;;;10.80;5.27;;;13.10;99.90;;;;;;4167152;28;20214;-82
2021/10/20 01:44:12;;;;;;;8.00;4.70;;;13.10;99.90;;;;;;4156131;28;20280;-80
2021/10/20 01:46:14;;;;;;;9.33;5.20;;;13.20;99.90;;;;;;4170819;28;20210;-80
2021/10/20 01:48:15;;;;;;;6.67;5.10;;;13.10;99.90;;;;;;4168374;28;20214;-80
2021/10/20 01:50:17;;;;;;;7.17;5.00;;;13.10;99.90;;;;;;4164890;28;20242;-81
2021/10/20 01:52:19;;;;;;;8.03;5.10;;;13.10;99.90;;;;;;4153020;28;20218;-81
2021/10/20 01:54:22;;;;;;;8.67;4.83;;;13.10;99.90;;;;;;4149685;28;20579;-81
2021/10/20 01:56:24;;;;;;;8.83;5.27;;;13.10;99.90;;;;;;4159984;28;20234;-82
2021/10/20 01:58:26;;;;;;;7.10;4.93;;;13.10;99.90;;;;;;4163200;28;20210;-81
2021/10/20 02:00:28;;;;;;;7.70;4.87;;;13.00;99.90;;;;;;4152868;28;20234;-80
2021/10/20 02:02:30;;;;;;;7.00;4.50;;;13.10;99.90;;;;;;4149141;28;20726;-81
2021/10/20 02:04:31;;;;;;;7.17;4.77;;;13.10;99.90;;;;;;4164009;28;20233;-81
2021/10/20 02:06:33;;;;;;;9.27;5.20;;;13.10;99.90;;;;;;4163558;28;20206;-81
2021/10/20 02:08:35;;;;;;;9.73;5.07;;;13.10;99.90;;;;;;4163673;28;20218;-82
2021/10/20 02:10:38;;;;;;;7.20;5.00;;;13.20;99.90;;;;;;4162849;28;20234;-81
2021/10/20 02:12:40;;;;;;;6.20;4.50;;;13.10;99.90;;;;;;4165190;28;20221;-81
2021/10/20 02:14:42;;;;;;;7.63;5.33;;;13.00;99.90;;;;;;4158700;28;20256;-81
2021/10/20 02:16:43;;;;;;;7.23;4.70;;;13.10;99.90;;;;;;4162467;28;20241;-80
2021/10/20 02:18:45;;;;;;;7.07;4.13;;;13.00;99.90;;;;;;4163790;28;20664;-81
2021/10/20 02:20:47;;;;;;;6.53;4.53;;;13.10;99.90;;;;;;4163364;28;20711;-81
2021/10/20 02:22:49;;;;;;;7.73;4.43;;;13.00;99.90;;;;;;4154823;28;20589;-81
2021/10/20 02:24:51;;;;;;;6.20;4.50;;;13.00;99.90;;;;;;4156562;28;20574;-81
2021/10/20 02:26:54;;;;;;;6.53;4.40;;;13.00;99.90;;;;;;4162498;28;20256;-81
2021/10/20 02:28:56;;;;;;;6.10;4.23;;;13.00;99.90;;;;;;4163568;28;20214;-81
2021/10/20 02:30:57;;;;;;;9.73;4.50;;;13.00;99.90;;;;;;4161016;28;20233;-81
2021/10/20 02:32:59;;;;;;;6.00;3.90;;;12.90;99.90;;;;;;4147644;28;20305;-81
2021/10/20 02:35:02;;;;;;;7.90;4.47;;;12.90;99.90;;;;;;4148539;28;20226;-80
2021/10/20 02:37:04;;;;;;;7.33;3.77;;;13.00;99.90;;;;;;4155295;28;20733;-81
2021/10/20 02:39:06;;;;;;;9.17;4.70;;;13.00;99.90;;;;;;4165668;28;20214;-80
2021/10/20 02:41:07;;;;;;;6.27;4.13;;;12.90;99.90;;;;;;4154092;28;20787;-81
2021/10/20 02:43:10;;;;;;;6.67;4.37;;;13.00;99.90;;;;;;4157732;28;20214;-80
2021/10/20 02:45:14;;;;;;;6.23;3.83;;;12.90;99.90;;;;;;4165385;28;20218;-81
2021/10/20 02:47:16;;;;;;;5.33;3.60;;;12.90;99.90;;;;;;4164692;28;20272;-81
2021/10/20 02:49:17;;;;;;;5.37;3.60;;;12.90;99.90;;;;;;4164710;28;20572;-80
2021/10/20 02:51:19;;;;;;;6.60;3.83;;;12.90;99.90;;;;;;4152352;28;20769;-81
2021/10/20 02:53:21;;;;;;;5.50;4.00;;;12.90;99.90;;;;;;4161372;28;20210;-80
2021/10/20 02:55:23;;;;;;;6.60;3.93;;;12.90;99.90;;;;;;4167414;28;20268;-81
2021/10/20 02:57:25;;;;;;;6.03;3.80;;;12.90;99.90;;;;;;4165795;28;20221;-81
2021/10/20 02:59:28;;;;;;;4.90;3.37;;;12.90;99.90;;;;;;4163834;28;20207;-80
2021/10/20 03:01:30;;;;;;;5.70;3.63;;;12.90;99.90;;;;;;4166340;28;20239;-81
2021/10/20 03:03:31;;;;;;;5.23;3.90;;;13.00;99.90;;;;;;4167753;28;20291;-81
2021/10/20 03:05:33;;;;;;;5.10;3.70;;;12.90;99.90;;;;;;4162953;28;20265;-81
2021/10/20 03:07:35;;;;;;;8.50;3.83;;;12.90;99.90;;;;;;4165513;28;20268;-81
2021/10/20 03:09:37;;;;;;;6.57;3.60;;;13.00;99.90;;;;;;4165615;28;20479;-81
2021/10/20 03:11:39;;;;;;;5.87;3.40;;;12.90;99.90;;;;;;4167699;28;20293;-81
2021/10/20 03:13:41;;;;;;;5.83;3.77;;;13.00;99.90;;;;;;4166233;28;20214;-80
2021/10/20 03:15:44;;;;;;;5.50;3.97;;;12.90;99.90;;;;;;4166141;28;20231;-81
2021/10/20 03:17:45;;;;;;;5.07;3.80;;;13.00;99.90;;;;;;4174306;28;20218;-81
2021/10/20 03:19:47;;;;;;;5.50;3.57;;;13.00;99.90;;;;;;4170976;28;20202;-81
2021/10/20 03:21:49;;;;;;;5.60;3.30;;;13.00;99.90;;;;;;4170022;28;20227;-81
2021/10/20 03:23:50;;;;;;;6.23;4.00;;;13.00;99.90;;;;;;4167099;28;20241;-81
2021/10/20 03:25:52;;;;;;;5.67;4.03;;;13.00;99.90;;;;;;4171248;28;20207;-80
2021/10/20 03:27:54;;;;;;;6.30;3.87;;;13.00;99.90;;;;;;4169184;28;20745;-80
2021/10/20 03:29:56;;;;;;;6.63;3.57;;;13.00;99.90;;;;;;4165884;28;20617;-80
2021/10/20 03:31:59;;;;;;;4.47;3.37;;;13.00;99.90;;;;;;4168392;28;20218;-80
2021/10/20 03:34:02;;;;;;;6.77;3.50;;;13.00;99.90;;;;;;4168761;28;20211;-80
2021/10/20 03:36:05;;;;;;;5.60;2.90;;;13.00;99.90;;;;;;4168189;28;20305;-81
2021/10/20 03:38:07;;;;;;;5.33;3.20;;;13.00;99.90;;;;;;4168017;28;20301;-80
2021/10/20 03:40:09;;;;;;;5.30;3.03;;;13.00;99.90;;;;;;4163587;28;20628;-81
2021/10/20 03:42:11;;;;;;;5.33;3.00;;;13.00;99.90;;;;;;4163583;28;20269;-80
2021/10/20 03:44:12;;;;;;;4.60;3.07;;;13.00;99.90;;;;;;4170596;28;20212;-80
2021/10/20 03:46:14;;;;;;;4.70;3.10;;;13.00;99.90;;;;;;4167474;28;20210;-80
2021/10/20 03:48:17;;;;;;;5.43;3.57;;;13.00;99.90;;;;;;4160303;28;20261;-80
2021/10/20 03:50:19;;;;;;;4.27;3.03;;;12.90;99.90;;;;;;4168419;28;20241;-81
2021/10/20 03:52:21;;;;;;;5.70;3.23;;;13.00;99.90;;;;;;4167782;28;20207;-80
2021/10/20 03:54:23;;;;;;;5.07;2.90;;;13.00;99.90;;;;;;4168132;28;20210;-80
2021/10/20 03:56:24;;;;;;;4.60;3.00;;;13.00;99.90;;;;;;4164395;28;20221;-80
2021/10/20 03:58:26;;;;;;;4.60;3.20;;;12.90;99.90;;;;;;4155278;28;20215;-80
2021/10/20 04:00:28;;;;;;;4.40;2.97;;;12.90;99.90;;;;;;4167726;28;20238;-80
2021/10/20 04:02:30;;;;;;;3.63;2.87;;;12.90;99.90;;;;;;4162315;28;20290;-80
2021/10/20 04:04:33;;;;;;;4.00;2.73;;;13.10;99.90;;;;;;4167706;28;20259;-80
2021/10/20 04:06:35;;;;;;;4.50;3.17;;;12.90;99.90;;;;;;4158016;28;20207;-80
2021/10/20 04:08:37;;;;;;;4.17;2.77;;;12.90;99.90;;;;;;4166111;28;20249;-80
2021/10/20 04:10:39;;;;;;;5.00;2.93;;;12.90;99.90;;;;;;4166740;28;20242;-80
2021/10/20 04:12:41;;;;;;;6.83;2.97;;;12.90;99.90;;;;;;4166471;28;20214;-81
2021/10/20 04:14:42;;;;;;;3.90;2.90;;;12.90;99.90;;;;;;4165269;28;20226;-81
2021/10/20 04:16:44;;;;;;;4.77;2.87;;;12.90;99.90;;;;;;4167381;28;20239;-81
2021/10/20 04:18:46;;;;;;;4.67;2.97;;;12.90;99.90;;;;;;4158985;28;20264;-80
2021/10/20 04:20:49;;;;;;;4.80;2.87;;;12.90;99.90;;;;;;4166763;28;20227;-80
2021/10/20 04:22:51;;;;;;;3.70;2.57;;;12.90;99.90;;;;;;4149803;28;20632;-81
2021/10/20 04:24:53;;;;;;;5.10;2.60;;;12.90;99.90;;;;;;4158186;28;20655;-80
2021/10/20 04:26:54;;;;;;;4.10;2.60;;;12.90;99.90;;;;;;4164036;28;20272;-81
2021/10/20 04:28:56;;;;;;;7.33;3.17;;;12.90;99.90;;;;;;4165900;28;20321;-81
2021/10/20 04:30:58;;;;;;;6.80;2.73;;;12.90;99.90;;;;;;4167815;28;20226;-81
2021/10/20 04:32:59;;;;;;;3.93;2.63;;;12.90;99.90;;;;;;4155318;28;20656;-84
2021/10/20 04:35:01;;;;;;;3.73;2.30;;;12.90;99.90;;;;;;4163948;28;20207;-80
2021/10/20 04:37:04;;;;;;;6.67;2.60;;;12.80;99.90;;;;;;4166907;28;20584;-80
2021/10/20 04:39:07;;;;;;;3.70;2.60;;;12.80;99.90;;;;;;4150050;28;20214;-80
2021/10/20 04:41:08;;;;;;;5.17;2.73;;;12.90;99.90;;;;;;4154135;28;20235;-80
2021/10/20 04:43:10;;;;;;;3.47;2.40;;;12.80;99.90;;;;;;4158185;28;20219;-80
2021/10/20 04:45:12;;;;;;;4.23;2.87;;;12.80;99.90;;;;;;4164006;28;20213;-81
2021/10/20 04:47:14;;;;;;;4.20;2.77;;;12.80;99.90;;;;;;4165524;28;20638;-80
2021/10/20 04:49:15;;;;;;;3.67;2.50;;;12.80;99.90;;;;;;4164137;28;20272;-81
2021/10/20 04:51:17;;;;;;;5.13;2.70;;;12.80;99.90;;;;;;4166849;28;20269;-80
2021/10/20 04:53:20;;;;;;;4.77;2.73;;;12.80;99.90;;;;;;4165224;28;20214;-80
2021/10/20 04:55:22;;;;;;;4.03;2.60;;;12.80;99.90;;;;;;4163999;28;20214;-78
2021/10/20 04:57:24;;;;;;;3.00;2.50;;;12.80;99.90;;;;;;4164613;28;20257;-80
2021/10/20 04:59:27;;;;;;;3.90;2.80;;;12.70;99.90;;;;;;4163161;28;20277;-80
2021/10/20 05:01:29;;;;;;;8.77;4.10;;;12.70;99.90;;;;;;4164976;28;20265;-79
2021/10/20 05:03:31;;;;;;;5.80;3.07;;;12.70;99.90;;;;;;4164166;28;20626;-80
2021/10/20 05:05:32;;;;;;;4.43;2.77;;;12.70;99.90;;;;;;4163129;28;20253;-80
2021/10/20 05:07:35;;;;;;;5.23;2.70;;;12.70;99.90;;;;;;4161050;28;20279;-78
2021/10/20 05:09:39;;;;;;;4.33;2.50;;;12.70;99.90;;;;;;4159030;28;20581;-80
2021/10/20 05:11:40;;;;;;;4.13;2.40;;;12.70;99.90;;;;;;4164829;28;20229;-80
2021/10/20 05:13:42;;;;;;;3.53;2.47;;;12.70;99.90;;;;;;4164271;28;20667;-79
2021/10/20 05:15:44;;;;;;;3.27;2.47;;;12.70;99.90;;;;;;4153138;28;20648;-79
2021/10/20 05:17:47;;;;;;;4.47;2.80;;;12.60;99.90;;;;;;4159943;28;20364;-79
2021/10/20 05:19:48;;;;;;;4.50;2.87;;;12.60;99.90;;;;;;4159139;28;20207;-79
2021/10/20 05:21:50;;;;;;;4.27;2.90;;;12.60;99.90;;;;;;4159103;28;20260;-80
2021/10/20 05:23:52;;;;;;;4.37;2.80;;;12.70;99.90;;;;;;4157319;28;20210;-80
2021/10/20 05:25:55;;;;;;;3.40;2.43;;;12.60;99.90;;;;;;4160570;28;20503;-80
2021/10/20 05:27:56;;;;;;;4.50;2.40;;;12.60;99.90;;;;;;4160259;28;20207;-80
2021/10/20 05:29:58;;;;;;;3.40;2.47;;;12.50;99.90;;;;;;4160536;28;20219;-80
2021/10/20 05:32:00;;;;;;;4.43;2.50;;;12.50;99.90;;;;;;4160508;28;20676;-79
2021/10/20 05:34:02;;;;;;;4.37;2.23;;;12.50;99.90;;;;;;4161873;28;20214;-81
2021/10/20 05:36:04;;;;;;;5.77;2.70;;;12.60;99.90;;;;;;4167076;28;20618;-81
2021/10/20 05:38:06;;;;;;;5.00;2.93;;;12.50;99.90;;;;;;4165888;28;20261;-84
2021/10/20 05:40:09;;;;;;;5.50;2.77;;;12.50;99.90;;;;;;4165293;28;20213;-82
2021/10/20 05:42:12;;;;;;;5.07;2.93;;;12.50;99.90;;;;;;4169974;28;20202;-83
2021/10/20 05:44:14;;;;;;;4.63;3.00;;;12.50;99.90;;;;;;4170698;28;20209;-82
2021/10/20 05:46:16;;;;;;;4.53;2.60;;;12.50;99.90;;;;;;4172920;28;20206;-83
2021/10/20 05:48:22;;;;;;;5.37;3.00;;;12.50;99.90;;;;;;4165544;28;20672;-79
2021/10/20 05:50:24;;;;;;;8.00;2.97;;;12.50;99.90;;;;;;4165615;28;20237;-78
2021/10/20 05:52:26;;;;;;;4.23;2.70;;;12.50;99.90;;;;;;4166125;28;20297;-79
2021/10/20 05:54:27;;;;;;;7.13;2.93;;;12.50;99.90;;;;;;4167800;28;20244;-80
2021/10/20 05:56:29;;;;;;;5.17;2.73;;;12.50;99.90;;;;;;4169110;28;20265;-78
2021/10/20 05:58:32;;;;;;;7.73;2.93;;;12.50;99.90;;;;;;4165736;28;20214;-79
2021/10/20 06:00:35;;;;;;;4.53;2.57;;;12.50;99.90;;;;;;4164929;28;20229;-80
2021/10/20 06:02:37;;;;;;;4.87;2.20;;;12.70;99.90;;;;;;4164449;28;20733;-80
2021/10/20 06:04:38;;;;;;;4.70;2.70;;;12.60;99.90;;;;;;4169745;28;20293;-79
2021/10/20 06:06:40;;;;;;;4.77;2.60;;;12.50;99.90;;;;;;4167997;28;20375;-79
2021/10/20 06:08:42;;;;;;;4.10;2.67;;;12.60;99.90;;;;;;4170572;28;20214;-79
2021/10/20 06:10:44;;;;;;;6.67;2.37;;;12.60;99.90;;;;;;4167687;28;20238;-79
2021/10/20 06:12:45;;;;;;;4.60;2.30;;;12.60;99.90;;;;;;4169614;28;20213;-79
2021/10/20 06:14:49;;;;;;;3.73;2.23;;;12.60;99.90;;;;;;4170083;28;20614;-80
2021/10/20 06:16:50;;;;;;;3.17;2.43;;;12.70;99.90;;;;;;4168306;28;20229;-80
2021/10/20 06:18:52;;;;;;;4.67;2.47;;;12.70;99.90;;;;;;4163310;28;20210;-80
2021/10/20 06:20:55;;;;;;;3.80;2.43;;;12.70;99.90;;;;;;4163076;28;20264;-80
2021/10/20 06:22:56;;;;;;;4.00;2.30;;;12.70;99.90;;;;;;4168260;28;20273;-79
2021/10/20 06:24:58;;;;;;;3.63;2.47;;;12.70;99.90;;;;;;4171374;28;20269;-80
2021/10/20 06:27:00;;;;;;;5.00;2.57;;;12.70;99.90;;;;;;4166534;28;20211;-80
2021/10/20 06:29:02;;;;;;;5.47;2.70;;;12.70;99.90;;;;;;4164077;28;20210;-80
2021/10/20 06:31:05;;;;;;;4.40;2.30;;;12.70;99.90;;;;;;4169271;28;20233;-80
2021/10/20 06:33:07;;;;;;;3.47;2.40;;;12.70;99.90;;;;;;4186562;28;20286;-80
2021/10/20 06:35:10;;;;;;;3.00;2.03;;;12.70;99.90;;;;;;4164822;28;20246;-80
2021/10/20 06:37:12;;;;;;;4.03;2.33;;;12.70;99.90;;;;;;4162408;28;20644;-80
2021/10/20 06:39:13;;;;;;;3.63;2.30;;;12.70;99.90;;;;;;4171582;28;20202;-80
2021/10/20 06:41:15;;;;;;;4.43;2.53;;;12.70;99.90;;;;;;4171294;28;20229;-80
2021/10/20 06:43:17;;;;;;;7.33;2.13;;;12.70;99.90;;;;;;4163201;28;20214;-80
2021/10/20 06:45:18;;;;;;;4.93;2.37;;;12.70;99.90;;;;;;4172537;28;20233;-80
2021/10/20 06:47:22;;;;;;;3.80;2.33;;;12.70;99.90;;;;;;4173081;28;20212;-80
2021/10/20 06:49:24;;;;;;;3.70;2.47;;;12.80;99.90;;;;;;4172010;28;20268;-80
2021/10/20 06:51:25;;;;;;;3.40;2.23;;;12.80;99.90;;;;;;4169594;28;20243;-80
2021/10/20 06:53:27;;;;;;;3.87;2.03;;;12.80;99.90;;;;;;4156504;28;20218;-80
2021/10/20 06:55:29;;;;;;;3.20;2.27;;;12.80;99.90;;;;;;4156096;28;20742;-79
2021/10/20 06:57:31;;;;;;;3.10;2.10;;;12.80;99.90;;;;;;4158528;28;20234;-80
2021/10/20 06:59:32;;;;;;;6.37;2.27;;;13.00;99.90;;;;;;4172510;28;20223;-80
2021/10/20 07:01:34;;;;;;;3.13;2.00;;;12.90;99.90;;;;;;4171310;28;20238;-80
2021/10/20 07:03:37;;;;;;;4.40;2.30;;;12.90;99.90;;;;;;4173122;28;20622;-80
2021/10/20 07:05:39;;;;;;;5.20;2.60;;;12.90;99.90;;;;;;4172058;28;20269;-80
2021/10/20 07:07:40;;;;;;;4.73;2.63;;;13.00;99.90;;;;;;4176906;28;20272;-80
2021/10/20 07:09:42;;;;;;;3.53;2.23;;;13.00;99.90;;;;;;4172375;28;20272;-80
2021/10/20 07:11:44;;;;;;;3.43;2.10;;;13.00;99.90;;;;;;4174982;28;20291;-80
2021/10/20 07:13:46;;;;;;;3.03;2.20;;;13.10;99.90;;;;;;4173261;28;20269;-80
2021/10/20 07:15:49;;;;;;;6.30;2.63;;;13.10;99.90;;;;;;4174092;28;20206;-80
2021/10/20 07:17:51;;;;;;;6.10;2.70;;;13.20;99.90;;;;;;4162476;28;20235;-80
2021/10/20 07:19:54;;;;;;;5.37;2.90;;;13.30;99.90;;;;;;4169571;28;20479;-79
2021/10/20 07:21:58;;;;;;;4.33;2.73;;;13.30;99.90;;;;;;4173108;28;20206;-79
2021/10/20 07:24:00;;;;;;;3.20;2.50;;;13.30;99.90;;;;;;4171214;28;20223;-80
2021/10/20 07:26:02;;;;;;;4.63;2.90;;;13.40;99.90;;;;;;4170575;28;20211;-80
2021/10/20 07:28:04;;;;;;;5.00;3.07;;;13.40;99.90;;;;;;4171261;28;20215;-79
2021/10/20 07:30:09;;;;;;;6.27;3.40;;;13.40;99.90;;;;;;4167427;28;20211;-80
2021/10/20 07:32:11;;;;;;;4.90;3.10;;;13.50;99.90;;;;;;4171857;28;20590;-80
2021/10/20 07:34:12;;;;;;;4.10;2.87;;;13.50;99.90;;;;;;4165453;28;20893;-80
2021/10/20 07:36:15;;;;;;;4.17;2.90;;;13.50;99.90;;;;;;4153237;28;20195;-80
2021/10/20 07:38:17;;;;;;;4.40;2.60;;;13.50;99.90;;;;;;4169365;28;20822;-80
2021/10/20 07:40:19;;;;;;;4.73;2.43;;;13.60;99.90;;;;;;4169378;28;20229;-77
2021/10/20 07:42:20;;;;;;;3.77;2.30;;;13.60;99.90;;;;;;4161913;28;20627;-79
2021/10/20 07:44:22;;;;;;;3.30;2.07;;;13.70;99.90;;;;;;4160135;28;20280;-79
2021/10/20 07:46:24;;;;;;;3.03;2.00;;;14.20;99.90;;;;;;4165026;28;20203;-79
2021/10/20 07:48:25;;;;;;;3.60;2.00;;;13.80;99.90;;;;;;4165003;28;20215;-79
2021/10/20 07:50:27;;;;;;;2.80;1.93;;;13.90;99.90;;;;;;4162036;28;20243;-79
2021/10/20 07:52:30;;;;;;;3.03;2.27;;;14.00;99.90;;;;;;4165100;28;20211;-79
2021/10/20 07:54:32;;;;;;;6.47;2.87;;;14.00;99.90;;;;;;4165554;28;20211;-79
2021/10/20 07:56:36;;;;;;;6.33;2.57;;;14.10;99.90;;;;;;4165154;28;20257;-78
2021/10/20 07:58:37;;;;;;;3.13;2.40;;;14.20;99.90;;;;;;4167282;28;20280;-78
2021/10/20 08:00:39;;;;;;;5.57;2.67;;;14.20;99.90;;;;;;4155876;28;20232;-78
2021/10/20 08:02:41;;;;;;;5.33;2.63;;;14.30;99.90;;;;;;4161720;28;20215;-78
2021/10/20 08:04:43;;;;;;;7.57;3.03;;;14.40;99.90;;;;;;4167285;28;20207;-78
2021/10/20 08:06:45;;;;;;;6.23;2.90;;;14.50;99.90;;;;;;4165604;28;20256;-78
2021/10/20 08:08:48;;;;;;;6.50;2.90;;;14.60;99.90;;;;;;4158822;28;20257;-78
2021/10/20 08:10:50;;;;;;;8.00;3.23;;;14.60;99.90;;;;;;4165817;28;20233;-78
2021/10/20 08:12:52;;;;;;;5.33;3.10;;;14.70;99.90;;;;;;4166914;28;20266;-78
2021/10/20 08:14:56;;;;;;;8.70;3.30;;;14.80;99.90;;;;;;4163635;28;20620;-78
2021/10/20 08:16:57;;;;;;;7.43;3.27;;;14.90;99.90;;;;;;4161681;28;20718;-78
2021/10/20 08:18:59;;;;;;;6.47;3.17;;;14.90;99.90;;;;;;4168692;28;20231;-78
2021/10/20 08:21:01;;;;;;;6.03;2.30;;;15.00;99.90;;;;;;4164731;28;20227;-78
2021/10/20 08:23:04;;;;;;;8.60;2.77;;;15.00;99.90;;;;;;4157370;28;20251;-78
2021/10/20 08:25:09;;;;;;;4.53;2.53;;;15.10;99.90;;;;;;4169931;28;20210;-78
2021/10/20 08:27:11;;;;;;;5.40;2.63;;;15.10;99.90;;;;;;4166817;28;20214;-78
2021/10/20 08:29:13;;;;;;;5.30;2.60;;;15.20;99.90;;;;;;4171440;28;20227;-78
2021/10/20 08:31:14;;;;;;;3.70;2.33;;;15.20;99.90;;;;;;4157126;28;20235;-78
2021/10/20 08:33:16;;;;;;;6.43;2.40;;;15.30;99.90;;;;;;4163692;28;20205;-79
2021/10/20 08:35:19;;;;;;;6.33;2.63;;;15.30;99.90;;;;;;4158371;28;20272;-78
2021/10/20 08:37:21;;;;;;;6.63;2.53;;;15.40;99.90;;;;;;4150161;28;20640;-78
2021/10/20 08:39:22;;;;;;;4.00;2.40;;;15.50;99.90;;;;;;4149765;28;20218;-78
2021/10/20 08:41:26;;;;;;;9.10;2.90;;;15.50;99.90;;;;;;4150896;28;20241;-78
2021/10/20 08:43:28;;;;;;;4.70;2.70;;;15.50;99.90;;;;;;4150913;28;20214;-78
2021/10/20 08:45:30;;;;;;;3.53;2.40;;;15.50;99.90;;;;;;4160574;28;20265;-78
2021/10/20 08:47:33;;;;;;;6.43;2.70;;;15.60;99.90;;;;;;4175578;28;20213;-78
2021/10/20 08:49:37;;;;;;;6.17;3.03;;;15.60;99.90;;;;;;4170775;28;20208;-78
2021/10/20 08:51:40;;;;;;;5.47;2.70;;;15.70;99.90;;;;;;4156009;28;20242;-78
2021/10/20 08:53:41;;;;;;;4.47;2.83;;;15.70;99.90;;;;;;4154849;28;20253;-78
2021/10/20 08:55:43;;;;;;;4.67;2.87;;;15.80;99.90;;;;;;4166379;28;20206;-78
2021/10/20 08:57:47;;;;;;;8.30;3.23;;;15.90;99.90;;;;;;4167274;28;20211;-78
2021/10/20 08:59:48;;;;;;;8.67;3.40;;;15.90;99.90;;;;;;4168538;28;20592;-80
2021/10/20 09:01:50;;;;;;;7.93;2.80;;;16.00;99.90;;;;;;4176223;28;20280;-78
2021/10/20 09:03:52;;;;;;;5.43;2.90;;;16.00;99.90;;;;;;4181436;28;20207;-78
2021/10/20 09:05:57;;;;;;;4.47;2.60;;;16.00;99.90;;;;;;4169195;28;20234;-78
2021/10/20 09:07:59;;;;;;;4.43;2.40;;;16.10;99.90;;;;;;4163661;28;20241;-78
2021/10/20 09:10:01;;;;;;;3.90;2.50;;;16.10;99.90;;;;;;4162601;28;20260;-78
2021/10/20 09:12:02;;;;;;;5.43;2.77;;;16.20;99.90;;;;;;4162773;28;20215;-77
2021/10/20 09:14:07;;;;;;;5.27;2.53;;;16.20;99.90;;;;;;4164108;28;20268;-77
2021/10/20 09:16:09;;;;;;;6.43;2.80;;;16.30;99.90;;;;;;4161964;28;20239;-80
2021/10/20 09:18:15;;;;;;;4.60;2.60;;;16.30;99.90;;;;;;4178009;28;20235;-80
2021/10/20 09:20:23;;;;;;;4.63;2.33;;;16.40;99.90;;;;;;4169952;28;20700;-78
2021/10/20 09:22:24;;;;;;;4.73;2.53;;;16.40;99.90;;;;;;4168411;28;20199;-80
2021/10/20 09:24:29;;;;;;;3.90;2.23;;;16.50;99.90;;;;;;4168638;28;20240;-80
2021/10/20 09:26:31;;;;;;;5.77;2.60;;;16.50;99.90;;;;;;4165118;28;20268;-80
2021/10/20 09:28:34;;;;;;;7.80;2.83;;;16.60;99.90;;;;;;4167601;28;20199;-80
2021/10/20 09:30:39;;;;;;;6.27;3.20;;;16.70;99.90;;;;;;4167802;28;20227;-80
2021/10/20 09:32:41;;;;;;;6.53;2.90;;;16.70;99.90;;;;;;4169001;28;20203;-80
2021/10/20 09:34:43;;;;;;;6.27;2.60;;;16.80;99.90;;;;;;4165226;28;20274;-80
2021/10/20 09:36:46;;;;;;;6.17;2.73;;;16.90;99.90;;;;;;4168333;28;20269;-80
2021/10/20 09:38:48;;;;;;;3.93;2.60;;;16.90;99.90;;;;;;4167146;28;20219;-80
2021/10/20 09:40:50;;;;;;;5.03;2.63;;;17.00;99.90;;;;;;4170534;28;20664;-79
2021/10/20 09:42:54;;;;;;;4.77;2.20;;;17.00;99.90;;;;;;4167919;28;20241;-79
2021/10/20 09:44:55;;;;;;;6.43;2.63;;;17.10;99.90;;;;;;4164347;28;20215;-79
2021/10/20 09:46:58;;;;;;;4.17;2.47;;;17.10;99.80;;;;;;4159654;28;20219;-80
2021/10/20 09:49:13;;;;;;;5.30;2.60;;;17.20;99.70;;;;;;4181961;28;20216;-80
2021/10/20 09:51:15;;;;;;;6.90;2.73;;;17.20;99.90;;;;;;4172315;28;20254;-80
2021/10/20 09:53:18;;;;;;;3.60;2.30;;;17.30;99.10;;;;;;4167961;28;20265;-79
2021/10/20 09:55:26;;;;;;;4.47;2.40;;;17.30;98.60;;;;;;4171055;28;20210;-79
2021/10/20 09:57:31;;;;;;;5.73;2.57;;;17.30;98.50;;;;;;4170869;28;20230;-79
2021/10/20 09:59:33;;;;;;;5.87;2.63;;;17.30;98.30;;;;;;4172550;28;20223;-79
2021/10/20 10:01:36;;;;;;;4.37;2.50;;;17.30;99.10;;;;;;4168601;28;20229;-79
2021/10/20 10:03:40;;;;;;;4.60;3.00;;;17.40;99.30;;;;;;4177494;28;20567;-79
2021/10/20 10:05:41;;;;;;;3.63;2.50;;;17.40;99.10;;;;;;4172532;28;20213;-79
2021/10/20 10:07:43;;;;;;;4.63;2.77;;;17.40;99.20;;;;;;4170383;28;20212;-80
2021/10/20 10:09:45;;;;;;;5.30;2.57;;;17.40;98.70;;;;;;4171020;28;20209;-80
2021/10/20 10:11:51;;;;;;;5.03;2.37;;;17.50;98.90;;;;;;4171266;28;20230;-80
2021/10/20 10:13:56;;;;;;;4.47;2.80;;;17.50;98.20;;;;;;4170568;28;20229;-79
2021/10/20 10:16:00;;;;;;;4.80;2.53;;;17.60;98.40;;;;;;4170915;28;20199;-80
2021/10/20 10:18:04;;;;;;;6.90;2.97;;;17.50;98.10;;;;;;4168978;28;20273;-79
2021/10/20 10:20:10;;;;;;;4.50;2.40;;;17.60;97.60;;;;;;4164426;28;20211;-79
2021/10/20 10:22:23;;;;;;;6.43;2.80;;;17.70;98.70;;;;;;4170982;28;20298;-79
2021/10/20 10:24:34;;;;;;;5.63;2.67;;;17.80;97.90;;;;;;4163672;28;20206;-79
2021/10/20 10:26:37;;;;;;;7.27;2.77;;;17.90;98.20;;;;;;4170315;28;20233;-79
2021/10/20 10:28:39;;;;;;;6.77;3.00;;;18.00;97.70;;;;;;4163180;28;20199;-79
2021/10/20 10:30:48;;;;;;;4.20;2.63;;;18.10;97.40;;;;;;4174589;28;20232;-79
2021/10/20 10:32:57;;;;;;;5.00;2.70;;;18.10;97.70;;;;;;4173594;28;20263;-80
2021/10/20 10:35:02;;;;;;;6.97;2.87;;;18.20;97.20;;;;;;4168542;28;20205;-80